Aeneas, Washington
Current Conditions -  °F | °C
As of 12:53 PM on Saturday 22 Nov 2014 (Local Time) from KOMK Reporting Station
Clear Clear  
Wind Chill: 37°   Ceiling: Unl
Heat Index: 37°   Visibility: 10mi
Dew Point: 33°   Wind: 0mph
Humidity: 86%   Direction: NA
Pressure: 29.7"   Gusts: NA
Location:  48.6708°N, 119.278°W
Report Text: KOMK 222053Z AUTO 00000KT 10SM CLR 03/01 A2970 RMK AO2 SLP069 T00280006 53012
Loading
Personal Weather Stations






























Interactive Weather Map New forecast layout! Learn more

10-Day Weather Forecast

Advertisements
Track Severe Weather on mobile